Time;durP1;ratioP1;P1;durP2;ratioP2;P2;SDS_P1;SDS_P2;PMS_P1;PMS_P2;Temp;Humidity;BMP_temperature;BMP_pressure;BME280_temperature;BME280_humidity;BME280_pressure;Samples;Min_cycle;Max_cycle;Signal;HPM_P1;HPM_P2
2022/11/26 00:00:47;;;;;;;10.53;5.60;;;8.70;58.00;;;;;;20744;6847;117268;-80
2022/11/26 00:03:12;;;;;;;9.10;5.83;;;8.50;58.50;;;;;;20533;6847;308560;-80
2022/11/26 00:05:38;;;;;;;10.40;6.50;;;8.70;58.80;;;;;;20502;6847;309030;-77
2022/11/26 00:08:04;;;;;;;11.80;5.97;;;9.00;58.40;;;;;;20693;6847;117648;-80
2022/11/26 00:10:29;;;;;;;8.73;6.43;;;8.90;57.90;;;;;;20500;6847;338099;-80
2022/11/26 00:12:54;;;;;;;9.70;6.03;;;9.00;58.00;;;;;;20513;6847;308499;-80
2022/11/26 00:15:20;;;;;;;7.90;5.40;;;9.30;57.60;;;;;;20742;6847;117533;-80
2022/11/26 00:17:46;;;;;;;11.93;5.50;;;9.10;57.30;;;;;;20712;6847;119676;-80
2022/11/26 00:20:11;;;;;;;9.40;5.70;;;8.90;57.80;;;;;;20528;6847;327876;-80
2022/11/26 00:22:53;;;;;;;7.73;5.80;;;8.90;58.20;;;;;;20526;6847;278566;-80
2022/11/26 00:25:22;;;;;;;9.50;5.45;;;9.10;57.70;;;;;;20536;6847;279338;-79
2022/11/26 00:27:48;;;;;;;9.30;5.40;;;9.40;57.30;;;;;;20528;6847;277640;-80
2022/11/26 00:30:16;;;;;;;9.82;5.65;;;9.50;56.80;;;;;;20527;6847;311450;-81
2022/11/26 00:32:42;;;;;;;7.77;5.33;;;9.70;56.40;;;;;;20742;6846;117079;-81
2022/11/26 00:35:07;;;;;;;7.73;5.50;;;9.50;56.50;;;;;;20746;6847;121585;-80
2022/11/26 00:37:33;;;;;;;5.83;5.00;;;9.10;57.00;;;;;;20729;6847;145529;-80
2022/11/26 00:39:59;;;;;;;9.02;4.70;;;8.60;58.30;;;;;;20723;6847;119627;-80
2022/11/26 00:42:25;;;;;;;8.07;4.73;;;8.60;58.20;;;;;;20747;6847;117492;-80
2022/11/26 00:44:50;;;;;;;8.18;4.82;;;8.40;58.60;;;;;;20756;6847;119117;-80
2022/11/26 00:47:16;;;;;;;6.93;5.30;;;8.30;59.00;;;;;;20748;6847;120137;-80
2022/11/26 00:49:43;;;;;;;5.82;5.00;;;8.20;59.20;;;;;;20724;6847;117416;-80
2022/11/26 00:52:15;;;;;;;9.00;5.85;;;8.10;59.40;;;;;;20534;6847;338056;-80
2022/11/26 00:54:41;;;;;;;8.10;5.70;;;8.40;60.00;;;;;;20691;6847;117096;-80
2022/11/26 00:57:06;;;;;;;9.70;6.07;;;8.50;59.40;;;;;;20749;6847;117859;-80
2022/11/26 00:59:32;;;;;;;10.48;7.25;;;8.30;59.40;;;;;;20507;6847;281528;-81
2022/11/26 01:01:58;;;;;;;12.13;6.83;;;8.50;59.60;;;;;;20542;6847;117634;-80
2022/11/26 01:04:23;;;;;;;8.80;6.70;;;8.50;59.10;;;;;;20726;6847;117746;-80
2022/11/26 01:06:49;;;;;;;11.20;6.40;;;8.40;59.30;;;;;;20718;6847;118245;-80
2022/11/26 01:09:15;;;;;;;8.80;6.90;;;8.20;59.50;;;;;;20524;6847;309181;-80
2022/11/26 01:11:40;;;;;;;8.43;6.07;;;8.40;59.90;;;;;;20702;6847;118600;-80
2022/11/26 01:14:06;;;;;;;10.82;6.80;;;8.40;59.50;;;;;;20530;6847;338611;-80
2022/11/26 01:16:34;;;;;;;9.70;6.03;;;8.60;59.70;;;;;;20512;6847;279374;-79
2022/11/26 01:19:01;;;;;;;9.10;5.80;;;8.90;59.30;;;;;;20532;6847;307693;-80
2022/11/26 01:21:26;;;;;;;8.70;5.60;;;9.10;58.60;;;;;;20731;6847;118656;-80
2022/11/26 01:23:53;;;;;;;10.83;6.20;;;9.00;58.30;;;;;;20498;6847;338452;-80
2022/11/26 01:26:22;;;;;;;9.57;6.03;;;9.00;59.40;;;;;;20519;6847;298826;-80
2022/11/26 01:28:47;;;;;;;6.27;5.20;;;9.30;58.30;;;;;;20733;6847;120391;-80
2022/11/26 01:31:16;;;;;;;9.90;5.82;;;9.10;58.20;;;;;;20522;6847;281589;-80
2022/11/26 01:33:42;;;;;;;10.17;5.30;;;9.10;58.40;;;;;;20721;6847;121419;-80
2022/11/26 01:36:24;;;;;;;7.70;5.20;;;9.00;58.30;;;;;;20735;6847;117518;-80
2022/11/26 01:38:51;;;;;;;8.50;5.50;;;8.90;59.10;;;;;;20530;6847;338117;-81
2022/11/26 01:41:43;;;;;;;8.70;5.70;;;8.90;59.10;;;;;;20519;6847;296316;-80
2022/11/26 01:44:08;;;;;;;8.87;5.70;;;9.00;58.20;;;;;;20729;6846;117625;-79
2022/11/26 01:46:34;;;;;;;12.37;4.93;;;9.00;58.20;;;;;;20700;6847;116958;-80
2022/11/26 01:49:19;;;;;;;7.87;5.30;;;8.80;58.60;;;;;;20500;6847;312660;-80
2022/11/26 01:51:45;;;;;;;9.20;5.70;;;8.80;59.10;;;;;;20507;6847;308918;-80
2022/11/26 01:54:10;;;;;;;9.73;5.57;;;9.20;58.50;;;;;;20734;6847;117657;-80
2022/11/26 01:56:46;;;;;;;4.90;4.40;;;9.10;58.20;;;;;;20719;6847;121086;-80
2022/11/26 01:59:14;;;;;;;8.77;5.50;;;8.80;58.60;;;;;;20744;6847;117128;-80
2022/11/26 02:01:41;;;;;;;7.62;5.97;;;8.80;59.30;;;;;;20491;6847;340835;-80
2022/11/26 02:04:10;;;;;;;9.38;5.93;;;8.70;59.60;;;;;;20537;6847;308517;-79
2022/11/26 02:06:36;;;;;;;8.43;4.83;;;9.00;58.70;;;;;;20732;6847;120711;-79
2022/11/26 02:09:01;;;;;;;7.47;5.60;;;9.00;58.70;;;;;;20541;6847;307737;-80
2022/11/26 02:11:27;;;;;;;9.83;4.97;;;9.10;58.80;;;;;;20743;6847;117050;-80
2022/11/26 02:14:00;;;;;;;7.00;5.03;;;8.80;59.00;;;;;;20732;6847;117949;-80
2022/11/26 02:16:42;;;;;;;7.73;5.23;;;8.80;59.00;;;;;;20737;6847;117495;-80
2022/11/26 02:19:41;;;;;;;9.30;5.83;;;8.60;59.50;;;;;;20519;6847;307651;-80
2022/11/26 02:22:26;;;;;;;7.70;4.93;;;8.80;59.90;;;;;;20747;6847;117750;-80
2022/11/26 02:25:15;;;;;;;5.67;4.43;;;8.70;59.40;;;;;;20745;6847;117082;-79
2022/11/26 02:27:48;;;;;;;8.37;5.70;;;8.50;59.70;;;;;;19942;6847;307973;-79
2022/11/26 02:30:14;;;;;;;7.78;5.78;;;9.00;60.00;;;;;;20537;6847;278521;-79
2022/11/26 02:33:03;;;;;;;8.47;5.63;;;9.00;60.10;;;;;;20747;6847;119185;-79
2022/11/26 02:35:36;;;;;;;9.53;5.00;;;8.70;60.10;;;;;;20753;6847;116955;-79
2022/11/26 02:38:05;;;;;;;6.83;4.57;;;8.70;59.50;;;;;;20759;6847;117286;-79
2022/11/26 02:40:30;;;;;;;9.37;5.63;;;8.50;59.90;;;;;;20750;6847;117172;-79
2022/11/26 02:42:56;;;;;;;11.02;5.75;;;8.30;60.10;;;;;;20749;6847;121709;-80
2022/11/26 02:45:21;;;;;;;10.13;6.93;;;8.10;60.40;;;;;;20537;6847;330013;-80
2022/11/26 02:47:49;;;;;;;9.85;5.53;;;8.30;59.90;;;;;;20719;6847;118535;-80
2022/11/26 02:50:18;;;;;;;9.93;6.50;;;8.30;60.10;;;;;;20522;6847;278143;-80
2022/11/26 02:52:44;;;;;;;10.73;6.90;;;8.70;59.50;;;;;;20521;6847;280429;-79
2022/11/26 02:55:09;;;;;;;6.82;6.10;;;8.70;59.30;;;;;;20529;6846;308972;-79
2022/11/26 02:57:35;;;;;;;7.80;6.27;;;9.00;58.60;;;;;;20512;6847;307743;-79
2022/11/26 03:00:03;;;;;;;9.10;5.10;;;9.00;58.00;;;;;;20728;6847;117156;-79
2022/11/26 03:02:34;;;;;;;11.00;4.80;;;8.90;58.00;;;;;;20748;6847;117387;-78
2022/11/26 03:04:59;;;;;;;6.07;5.13;;;8.70;58.60;;;;;;20746;6847;117227;-79
2022/11/26 03:07:25;;;;;;;7.77;4.67;;;8.40;59.40;;;;;;20750;6847;117464;-79
2022/11/26 03:09:57;;;;;;;7.60;5.20;;;8.10;59.80;;;;;;20517;6847;278695;-79
2022/11/26 03:12:22;;;;;;;6.85;5.30;;;8.30;60.40;;;;;;20533;6847;310597;-79
2022/11/26 03:14:49;;;;;;;5.82;5.00;;;8.50;59.40;;;;;;20751;6847;117136;-79
2022/11/26 03:17:14;;;;;;;6.87;4.77;;;8.50;59.40;;;;;;20749;6847;117566;-78
2022/11/26 03:19:40;;;;;;;7.85;5.28;;;8.30;59.70;;;;;;20511;6847;281899;-78
2022/11/26 03:22:06;;;;;;;8.63;5.90;;;8.70;59.60;;;;;;20542;6847;280743;-79
2022/11/26 03:24:32;;;;;;;10.17;6.07;;;8.70;59.60;;;;;;20535;6847;280997;-78
2022/11/26 03:26:57;;;;;;;5.53;4.53;;;8.90;58.90;;;;;;20753;6847;117340;-79
2022/11/26 03:29:23;;;;;;;5.73;4.63;;;8.80;58.60;;;;;;20764;6847;117227;-79
2022/11/26 03:31:49;;;;;;;8.23;5.43;;;8.50;59.10;;;;;;20746;6847;121987;-79
2022/11/26 03:34:14;;;;;;;5.70;4.77;;;8.30;59.70;;;;;;20761;6847;118344;-77
2022/11/26 03:36:40;;;;;;;7.18;4.82;;;8.00;60.10;;;;;;20756;6847;119234;-80
2022/11/26 03:39:05;;;;;;;7.17;5.10;;;7.90;60.50;;;;;;20753;6847;117104;-83
2022/11/26 03:41:32;;;;;;;9.47;5.37;;;7.70;60.70;;;;;;20750;6847;117504;-81
2022/11/26 03:43:58;;;;;;;5.33;4.83;;;7.60;60.80;;;;;;20749;6847;117268;-82
2022/11/26 03:46:23;;;;;;;5.67;4.80;;;7.50;61.10;;;;;;20746;6847;117161;-83
2022/11/26 03:48:50;;;;;;;8.53;6.10;;;7.60;61.50;;;;;;20532;6847;338227;-80
2022/11/26 03:51:15;;;;;;;7.90;6.23;;;7.60;61.50;;;;;;20531;6847;340292;-80
2022/11/26 03:53:41;;;;;;;6.87;6.07;;;8.00;60.60;;;;;;20519;6847;309509;-81
2022/11/26 03:56:06;;;;;;;6.10;5.50;;;8.30;59.70;;;;;;20751;6847;119779;-79
2022/11/26 03:58:33;;;;;;;8.40;6.53;;;8.30;59.60;;;;;;20537;6847;308992;-78
2022/11/26 04:00:58;;;;;;;6.57;5.40;;;8.20;59.50;;;;;;20744;6847;118213;-78
2022/11/26 04:03:24;;;;;;;6.68;5.60;;;8.10;59.30;;;;;;20747;6847;117673;-78
2022/11/26 04:05:50;;;;;;;5.67;5.03;;;7.90;59.80;;;;;;20723;6846;118443;-78
2022/11/26 04:08:16;;;;;;;7.67;5.00;;;7.70;60.20;;;;;;20539;6847;308052;-78
2022/11/26 04:10:42;;;;;;;10.30;5.00;;;7.80;60.50;;;;;;20749;6847;117086;-78
2022/11/26 04:13:08;;;;;;;6.97;5.30;;;7.80;60.10;;;;;;20539;6847;278603;-78
2022/11/26 04:15:33;;;;;;;7.00;4.80;;;7.90;60.70;;;;;;20734;6847;127229;-78
2022/11/26 04:17:59;;;;;;;6.83;4.87;;;7.90;59.90;;;;;;20742;6847;121696;-79
2022/11/26 04:20:24;;;;;;;8.07;5.30;;;7.70;60.20;;;;;;20540;6847;337992;-79
2022/11/26 04:22:50;;;;;;;10.55;4.75;;;7.80;60.40;;;;;;20755;6847;117602;-79
2022/11/26 04:25:15;;;;;;;7.50;5.30;;;7.80;60.30;;;;;;20542;6847;307647;-79
2022/11/26 04:27:41;;;;;;;7.33;4.80;;;7.90;60.30;;;;;;20736;6847;117682;-79
2022/11/26 04:30:07;;;;;;;7.90;5.10;;;7.90;60.10;;;;;;20537;6847;337676;-79
2022/11/26 04:32:32;;;;;;;5.70;5.00;;;8.10;60.20;;;;;;20530;6847;310716;-79
2022/11/26 04:34:58;;;;;;;7.53;5.43;;;8.50;59.70;;;;;;20535;6847;340310;-79
2022/11/26 04:37:24;;;;;;;5.93;5.20;;;8.70;58.70;;;;;;20532;6847;308180;-79
2022/11/26 04:39:49;;;;;;;6.20;5.43;;;8.90;58.00;;;;;;20521;6847;308505;-79
2022/11/26 04:42:15;;;;;;;6.53;4.97;;;9.00;57.40;;;;;;20744;6847;117458;-79
2022/11/26 04:44:40;;;;;;;7.87;5.70;;;8.90;57.40;;;;;;20539;6847;307668;-79
2022/11/26 04:47:06;;;;;;;5.87;4.90;;;8.80;57.40;;;;;;20538;6847;307625;-79
2022/11/26 04:49:31;;;;;;;8.07;4.67;;;9.00;57.00;;;;;;20744;6847;117558;-79
2022/11/26 04:51:57;;;;;;;6.17;5.20;;;8.70;56.90;;;;;;20523;6847;310071;-79
2022/11/26 04:54:23;;;;;;;7.07;5.00;;;8.70;57.30;;;;;;20539;6847;279442;-79
2022/11/26 04:56:48;;;;;;;5.70;5.00;;;8.80;56.70;;;;;;20748;6847;117140;-78
2022/11/26 04:59:15;;;;;;;8.50;5.50;;;8.60;56.70;;;;;;20543;6847;308056;-79
2022/11/26 05:01:40;;;;;;;5.97;5.13;;;8.60;56.70;;;;;;20512;6847;296029;-79
2022/11/26 05:04:06;;;;;;;7.00;5.00;;;8.70;56.10;;;;;;20541;6847;278976;-79
2022/11/26 05:06:32;;;;;;;5.37;4.70;;;9.00;55.80;;;;;;20535;6847;311228;-79
2022/11/26 05:08:59;;;;;;;6.10;4.87;;;9.10;55.80;;;;;;20530;6847;307880;-79
2022/11/26 05:11:24;;;;;;;5.60;4.60;;;9.10;55.60;;;;;;20740;6847;117827;-79
2022/11/26 05:13:50;;;;;;;7.07;5.00;;;8.80;55.70;;;;;;20498;6847;283679;-81
2022/11/26 05:16:15;;;;;;;6.20;4.97;;;8.70;56.20;;;;;;20730;6847;117533;-79
2022/11/26 05:18:41;;;;;;;6.10;4.57;;;8.50;56.30;;;;;;20736;6846;118082;-80
2022/11/26 05:21:07;;;;;;;5.15;4.20;;;8.20;56.90;;;;;;20736;6847;121846;-80
2022/11/26 05:23:32;;;;;;;8.47;5.60;;;7.90;57.60;;;;;;20545;6847;288612;-80
2022/11/26 05:25:58;;;;;;;7.33;5.27;;;7.90;57.90;;;;;;20615;6847;117237;-76
2022/11/26 05:28:23;;;;;;;6.80;5.80;;;7.90;57.70;;;;;;20509;6847;308480;-79
2022/11/26 05:30:49;;;;;;;7.40;5.33;;;8.00;57.90;;;;;;20539;6847;281843;-80
2022/11/26 05:33:15;;;;;;;5.57;4.90;;;8.60;56.90;;;;;;20534;6847;308016;-85
2022/11/26 05:35:41;;;;;;;5.63;4.77;;;8.50;56.80;;;;;;20730;6847;117332;-80
2022/11/26 05:38:06;;;;;;;5.82;5.20;;;8.40;56.60;;;;;;20539;6847;307792;-82
2022/11/26 05:40:33;;;;;;;5.78;5.00;;;8.20;56.80;;;;;;20757;6847;117103;-84
2022/11/26 05:42:58;;;;;;;10.17;4.73;;;8.10;56.60;;;;;;20754;6847;119634;-79
2022/11/26 05:45:24;;;;;;;6.03;5.20;;;7.80;57.20;;;;;;20747;6847;118758;-83
2022/11/26 05:47:49;;;;;;;7.50;5.13;;;7.60;57.80;;;;;;20714;6847;141639;-80
2022/11/26 05:50:16;;;;;;;5.85;4.53;;;7.30;58.30;;;;;;20746;6847;117683;-81
2022/11/26 05:52:41;;;;;;;6.15;5.50;;;7.20;58.70;;;;;;20520;6847;337240;-78
2022/11/26 05:55:07;;;;;;;7.33;5.50;;;7.70;59.30;;;;;;20535;6847;337662;-80
2022/11/26 05:57:33;;;;;;;5.30;4.80;;;7.70;59.30;;;;;;20491;6847;300466;-78
2022/11/26 05:59:59;;;;;;;6.30;4.70;;;8.00;58.00;;;;;;20724;6847;117522;-81
2022/11/26 06:02:24;;;;;;;4.95;4.35;;;7.90;57.80;;;;;;20728;6847;118345;-80
2022/11/26 06:04:51;;;;;;;6.27;5.03;;;7.60;58.20;;;;;;20497;6847;308571;-80
2022/11/26 06:07:17;;;;;;;6.93;5.23;;;7.70;58.60;;;;;;20521;6847;279038;-79
2022/11/26 06:09:42;;;;;;;6.85;4.72;;;7.90;58.10;;;;;;20493;6847;280616;-79
2022/11/26 06:12:08;;;;;;;6.40;4.90;;;8.20;57.40;;;;;;20526;6847;290280;-71
2022/11/26 06:14:33;;;;;;;6.23;4.77;;;8.40;56.60;;;;;;20545;6847;278656;-73
2022/11/26 06:17:02;;;;;;;7.17;5.00;;;8.50;56.00;;;;;;20548;6847;280385;-74
2022/11/26 06:19:27;;;;;;;8.10;4.83;;;8.60;55.70;;;;;;20740;6847;117834;-75
2022/11/26 06:21:53;;;;;;;7.28;4.70;;;8.30;55.80;;;;;;20722;6847;118602;-75
2022/11/26 06:24:20;;;;;;;4.90;4.47;;;7.90;56.50;;;;;;20497;6847;307874;-75
2022/11/26 06:26:46;;;;;;;6.95;4.87;;;8.00;56.80;;;;;;20500;6847;309944;-74
2022/11/26 06:29:12;;;;;;;7.47;4.07;;;8.00;56.70;;;;;;20731;6846;117749;-73
2022/11/26 06:31:37;;;;;;;6.70;4.80;;;7.90;56.60;;;;;;20476;6847;278463;-75
2022/11/26 06:34:05;;;;;;;6.27;5.00;;;7.90;56.90;;;;;;20532;6847;279766;-75
2022/11/26 06:36:32;;;;;;;6.80;4.70;;;7.90;56.80;;;;;;20726;6847;117599;-74
2022/11/26 06:38:58;;;;;;;6.60;4.65;;;7.80;56.50;;;;;;20524;6847;340583;-77
2022/11/26 06:41:23;;;;;;;6.10;5.20;;;7.90;56.80;;;;;;20515;6847;281244;-74
2022/11/26 06:43:49;;;;;;;6.57;5.62;;;8.00;56.30;;;;;;20718;6847;117876;-73
2022/11/26 06:46:15;;;;;;;6.93;5.90;;;7.80;56.60;;;;;;20510;6847;308649;-74
2022/11/26 06:48:41;;;;;;;5.37;4.87;;;7.80;56.70;;;;;;20729;6847;117300;-74
2022/11/26 06:51:07;;;;;;;6.17;5.07;;;7.60;56.80;;;;;;20728;6847;117107;-74
2022/11/26 06:53:32;;;;;;;5.77;5.13;;;7.40;57.40;;;;;;20505;6847;308929;-75
2022/11/26 06:55:58;;;;;;;5.05;4.50;;;7.40;57.90;;;;;;20718;6847;117971;-74
2022/11/26 06:58:23;;;;;;;6.83;5.10;;;7.40;57.80;;;;;;20520;6847;310698;-73
2022/11/26 07:00:49;;;;;;;6.05;4.82;;;7.50;58.10;;;;;;20522;6847;296489;-75
2022/11/26 07:03:15;;;;;;;7.10;4.60;;;7.70;57.80;;;;;;20474;6847;307706;-75
2022/11/26 07:05:40;;;;;;;7.15;4.53;;;7.90;57.30;;;;;;20697;6847;118285;-76
2022/11/26 07:08:06;;;;;;;7.33;4.90;;;7.80;57.20;;;;;;20512;6847;309862;-74
2022/11/26 07:10:31;;;;;;;5.10;4.60;;;7.80;57.20;;;;;;20476;6847;317317;-78
2022/11/26 07:12:57;;;;;;;7.13;4.90;;;7.90;56.70;;;;;;20509;6847;310780;-76
2022/11/26 07:15:22;;;;;;;6.53;5.30;;;8.10;56.40;;;;;;20509;6847;310756;-76
2022/11/26 07:17:48;;;;;;;7.72;5.85;;;8.20;56.20;;;;;;20679;6847;118306;-77
2022/11/26 07:20:14;;;;;;;10.65;6.75;;;7.90;56.10;;;;;;20728;6847;117678;-80
2022/11/26 07:22:39;;;;;;;6.53;5.93;;;7.60;56.90;;;;;;20739;6847;117465;-78
2022/11/26 07:25:06;;;;;;;5.80;5.20;;;7.10;58.40;;;;;;20749;6847;117230;-78
2022/11/26 07:27:31;;;;;;;7.03;5.67;;;7.10;58.40;;;;;;20742;6847;117586;-78
2022/11/26 07:29:58;;;;;;;7.37;6.20;;;7.10;59.70;;;;;;20498;6847;308250;-76
2022/11/26 07:32:25;;;;;;;6.80;5.67;;;7.00;59.70;;;;;;20748;6847;119656;-80
2022/11/26 07:34:50;;;;;;;15.23;13.83;;;7.10;59.40;;;;;;20734;6847;117338;-77
2022/11/26 07:37:16;;;;;;;11.60;10.27;;;7.10;59.60;;;;;;20538;6847;279032;-76
2022/11/26 07:39:41;;;;;;;6.20;5.80;;;7.20;59.70;;;;;;20722;6847;120173;-78
2022/11/26 07:42:07;;;;;;;11.00;8.90;;;7.10;59.60;;;;;;20758;6846;118025;-78
2022/11/26 07:44:33;;;;;;;7.70;7.13;;;7.10;59.50;;;;;;20763;6847;117306;-79
2022/11/26 07:46:59;;;;;;;9.57;7.43;;;6.90;59.80;;;;;;20546;6847;308216;-82
2022/11/26 07:49:25;;;;;;;8.33;7.53;;;7.20;60.10;;;;;;20748;6847;117172;-75
2022/11/26 07:51:51;;;;;;;7.00;6.33;;;7.10;60.50;;;;;;20672;6847;117719;-78
2022/11/26 07:54:17;;;;;;;5.20;4.70;;;7.10;60.40;;;;;;20733;6847;117919;-76
2022/11/26 08:00:09;;;;;;;6.50;5.67;;;7.30;61.20;;;;;;20506;6847;310788;-78
2022/11/26 08:02:34;;;;;;;6.80;5.90;;;7.80;59.80;;;;;;20522;6847;306145;-80
2022/11/26 08:05:00;;;;;;;7.10;5.37;;;8.10;58.90;;;;;;20736;6847;118641;-79
2022/11/26 08:07:25;;;;;;;6.78;5.60;;;8.00;58.60;;;;;;20531;6847;336088;-77
2022/11/26 08:09:52;;;;;;;5.20;4.70;;;8.00;58.40;;;;;;20717;6847;117431;-79
2022/11/26 08:12:19;;;;;;;5.10;4.60;;;8.00;58.40;;;;;;20745;6847;117601;-80
2022/11/26 08:14:45;;;;;;;7.07;4.67;;;7.60;59.40;;;;;;20747;6847;119627;-78
2022/11/26 08:17:11;;;;;;;4.53;4.20;;;7.60;59.40;;;;;;20746;6847;118700;-78
2022/11/26 08:19:36;;;;;;;5.70;4.30;;;7.40;60.00;;;;;;20732;6847;121429;-78
2022/11/26 08:22:02;;;;;;;5.30;4.80;;;7.40;60.60;;;;;;20530;6847;319544;-77
2022/11/26 08:24:29;;;;;;;42.83;7.27;;;7.60;60.90;;;;;;20537;6847;310854;-76
2022/11/26 08:26:53;;;;;;;5.50;4.73;;;8.10;60.60;;;;;;20536;6847;309384;-78
2022/11/26 08:29:19;;;;;;;5.10;4.60;;;8.80;58.40;;;;;;20512;6847;310836;-76
2022/11/26 08:31:47;;;;;;;8.57;5.47;;;8.80;58.40;;;;;;20513;6847;310106;-74
2022/11/26 08:34:13;;;;;;;11.93;7.17;;;9.00;58.80;;;;;;20508;6847;311394;-77
2022/11/26 08:36:38;;;;;;;10.48;9.35;;;9.30;58.10;;;;;;20499;6847;310391;-76
2022/11/26 08:39:03;;;;;;;13.40;8.23;;;9.50;57.20;;;;;;20751;6847;117743;-79
2022/11/26 08:41:29;;;;;;;8.03;6.30;;;9.50;57.30;;;;;;20757;6847;116510;-73
2022/11/26 08:43:55;;;;;;;6.83;5.50;;;9.20;57.70;;;;;;20732;6847;117172;-77
2022/11/26 08:46:21;;;;;;;6.85;5.37;;;9.00;58.20;;;;;;20746;6847;120806;-77
2022/11/26 08:48:46;;;;;;;5.63;5.13;;;8.90;58.60;;;;;;20470;6847;308947;-77
2022/11/26 08:51:11;;;;;;;4.83;4.30;;;9.10;58.40;;;;;;20747;6847;117369;-76
2022/11/26 08:53:38;;;;;;;4.70;4.30;;;9.30;57.70;;;;;;20535;6846;310106;-77
2022/11/26 08:56:10;;;;;;;4.80;4.43;;;9.30;57.60;;;;;;20529;6847;339960;-77
2022/11/26 08:58:35;;;;;;;4.90;4.50;;;9.60;56.60;;;;;;20521;6847;309003;-76
2022/11/26 09:01:08;;;;;;;5.97;4.20;;;9.90;55.70;;;;;;20502;6847;278437;-77
2022/11/26 09:03:34;;;;;;;4.10;3.70;;;10.00;54.00;;;;;;20720;6847;143950;-78
2022/11/26 09:06:00;;;;;;;4.27;3.60;;;10.00;54.00;;;;;;20716;6847;117530;-75
2022/11/26 09:08:26;;;;;;;4.90;4.30;;;9.70;55.80;;;;;;20497;6847;308028;-76
2022/11/26 09:10:51;;;;;;;5.43;4.00;;;9.70;55.80;;;;;;20707;6847;119025;-81
2022/11/26 09:13:17;;;;;;;5.90;5.40;;;9.70;55.90;;;;;;20717;6847;117158;-80
2022/11/26 09:15:44;;;;;;;5.03;4.53;;;9.50;56.20;;;;;;20695;6847;118821;-80
2022/11/26 09:18:10;;;;;;;4.45;4.15;;;9.40;56.20;;;;;;20502;6847;308567;-77
2022/11/26 09:20:36;;;;;;;4.80;4.30;;;9.40;56.00;;;;;;20725;6847;117273;-77
2022/11/26 09:23:01;;;;;;;4.40;4.10;;;9.30;55.70;;;;;;20745;6847;121136;-79
2022/11/26 09:25:27;;;;;;;4.63;4.23;;;9.10;56.00;;;;;;20746;6847;118583;-73
2022/11/26 09:27:53;;;;;;;6.10;5.50;;;8.90;56.50;;;;;;20517;6847;308243;-75
2022/11/26 09:30:18;;;;;;;5.60;5.17;;;9.00;57.30;;;;;;20532;6847;311701;-75
2022/11/26 09:32:44;;;;;;;4.57;4.10;;;9.40;57.50;;;;;;20747;6847;117292;-74
2022/11/26 09:35:09;;;;;;;5.33;4.20;;;9.40;57.20;;;;;;20734;6847;117263;-76
2022/11/26 09:37:36;;;;;;;4.32;4.03;;;9.30;58.30;;;;;;20723;6847;126941;-75
2022/11/26 09:40:03;;;;;;;6.90;4.07;;;9.30;58.30;;;;;;20758;6847;117247;-76
2022/11/26 09:42:32;;;;;;;4.57;4.17;;;9.60;58.40;;;;;;20512;6847;306274;-75
2022/11/26 09:45:24;;;;;;;7.50;4.20;;;9.60;58.40;;;;;;20723;6847;117567;-75
2022/11/26 09:47:49;;;;;;;7.27;4.40;;;9.80;58.00;;;;;;20518;6847;307919;-73
2022/11/26 09:50:15;;;;;;;4.22;3.83;;;10.10;56.50;;;;;;20521;6847;308226;-74
2022/11/26 09:53:01;;;;;;;4.00;3.70;;;10.60;55.50;;;;;;20728;6847;117708;-75
2022/11/26 09:55:30;;;;;;;3.90;3.50;;;10.60;55.40;;;;;;20726;6847;117914;-78
2022/11/26 09:58:22;;;;;;;17.30;15.57;;;10.60;55.70;;;;;;20491;6847;281063;-81
2022/11/26 10:00:48;;;;;;;6.47;6.00;;;10.60;55.70;;;;;;20745;6847;117605;-79
2022/11/26 10:03:20;;;;;;;6.90;6.40;;;10.60;55.40;;;;;;20534;6845;307678;-74
2022/11/26 10:06:15;;;;;;;4.80;4.40;;;10.80;55.70;;;;;;20724;6847;128308;-74
2022/11/26 10:08:47;;;;;;;4.93;4.07;;;10.80;55.60;;;;;;20538;6847;297869;-74
2022/11/26 10:11:47;;;;;;;3.90;3.60;;;11.10;55.20;;;;;;20537;6847;300766;-75
2022/11/26 10:14:41;;;;;;;3.77;3.40;;;11.40;54.20;;;;;;20732;6847;118073;-74
2022/11/26 10:17:16;;;;;;;3.73;3.40;;;11.40;54.20;;;;;;20539;6847;278962;-76
2022/11/26 10:20:15;;;;;;;3.90;3.37;;;11.60;53.80;;;;;;20500;6847;326812;-76
2022/11/26 10:22:50;;;;;;;4.60;3.62;;;11.90;53.10;;;;;;20512;6847;278452;-77
2022/11/26 10:25:16;;;;;;;3.77;3.50;;;12.20;52.80;;;;;;20727;6847;118432;-78
2022/11/26 10:27:42;;;;;;;3.60;3.30;;;12.10;52.90;;;;;;20725;6847;120248;-78
2022/11/26 10:30:18;;;;;;;3.70;3.33;;;11.90;53.20;;;;;;20545;6847;278273;-78
2022/11/26 10:32:43;;;;;;;3.40;3.20;;;11.90;52.50;;;;;;20748;6847;119356;-73
2022/11/26 10:35:09;;;;;;;3.60;3.30;;;11.90;52.70;;;;;;20754;6847;117393;-73
2022/11/26 10:37:34;;;;;;;3.00;2.70;;;11.70;53.20;;;;;;20700;6847;118798;-74
2022/11/26 10:40:17;;;;;;;3.53;3.20;;;11.80;53.50;;;;;;20525;6847;337599;-73
2022/11/26 10:42:43;;;;;;;4.23;3.23;;;11.80;53.50;;;;;;20543;6847;280307;-76
2022/11/26 10:45:14;;;;;;;3.12;2.90;;;12.20;52.10;;;;;;20729;6847;117349;-75
2022/11/26 10:47:40;;;;;;;4.47;3.53;;;12.20;52.10;;;;;;20478;6847;308801;-74
2022/11/26 10:50:06;;;;;;;3.20;2.95;;;12.30;50.90;;;;;;20718;6847;117473;-75
2022/11/26 10:52:31;;;;;;;4.20;3.00;;;12.30;51.40;;;;;;20747;6847;117297;-75
2022/11/26 10:55:20;;;;;;;3.83;3.07;;;12.00;51.80;;;;;;20527;6847;296364;-76
2022/11/26 10:57:53;;;;;;;3.83;3.20;;;12.10;51.70;;;;;;20724;6847;120635;-78
2022/11/26 11:00:38;;;;;;;4.57;2.83;;;12.10;51.80;;;;;;20206;6847;311647;-78
2022/11/26 11:03:04;;;;;;;4.50;3.17;;;12.20;51.50;;;;;;20530;6847;279030;-74
2022/11/26 11:05:33;;;;;;;4.53;3.10;;;12.60;51.00;;;;;;20504;6847;293017;-74
2022/11/26 11:07:57;;;;;;;3.67;3.10;;;12.80;50.20;;;;;;20709;6847;118717;-75
2022/11/26 11:10:23;;;;;;;25.43;15.20;;;12.80;49.80;;;;;;20529;6847;310240;-77
2022/11/26 11:12:59;;;;;;;26.50;14.30;;;12.70;49.70;;;;;;20744;6847;119937;-74
2022/11/26 11:15:26;;;;;;;5.07;3.70;;;12.70;50.10;;;;;;20744;6846;118607;-74
2022/11/26 11:17:55;;;;;;;5.80;3.70;;;12.50;50.80;;;;;;20508;6847;308507;-74
2022/11/26 11:20:28;;;;;;;5.90;2.60;;;12.60;50.90;;;;;;20715;6847;117427;-74
2022/11/26 11:23:09;;;;;;;3.70;3.07;;;12.60;50.90;;;;;;20532;6847;309310;-74
2022/11/26 11:25:35;;;;;;;5.80;3.43;;;12.70;50.20;;;;;;20524;6847;312426;-76
2022/11/26 11:28:07;;;;;;;4.65;3.78;;;13.00;49.10;;;;;;20534;6847;310819;-77
2022/11/26 11:30:32;;;;;;;4.50;2.87;;;13.20;48.70;;;;;;20728;6847;119401;-74
2022/11/26 11:32:58;;;;;;;3.95;2.40;;;13.10;48.90;;;;;;20745;6847;117671;-76
2022/11/26 11:35:24;;;;;;;7.43;2.80;;;12.80;49.30;;;;;;20707;6847;117716;-73
2022/11/26 11:37:52;;;;;;;5.20;2.60;;;12.60;49.90;;;;;;20724;6847;118334;-75
2022/11/26 11:40:24;;;;;;;5.73;2.47;;;12.40;51.40;;;;;;20744;6847;117537;-77
2022/11/26 11:42:48;;;;;;;4.27;2.67;;;12.30;50.60;;;;;;20513;6847;309476;-73
2022/11/26 11:45:30;;;;;;;3.47;2.87;;;12.50;49.20;;;;;;20520;6847;307602;-75
2022/11/26 11:47:56;;;;;;;6.73;2.50;;;12.90;48.80;;;;;;20082;6847;121748;-76
2022/11/26 11:50:34;;;;;;;4.67;2.80;;;12.90;49.00;;;;;;20530;6847;279668;-76
2022/11/26 11:53:23;;;;;;;3.47;2.45;;;13.00;47.80;;;;;;20526;6847;326302;-73
2022/11/26 11:55:58;;;;;;;6.23;2.90;;;13.30;46.50;;;;;;20495;6847;310432;-73
2022/11/26 11:58:44;;;;;;;6.10;2.77;;;13.40;46.90;;;;;;20745;6847;117232;-72
2022/11/26 12:01:20;;;;;;;4.90;2.40;;;13.40;46.90;;;;;;20738;6847;117148;-72
2022/11/26 12:03:48;;;;;;;6.13;2.27;;;13.10;47.40;;;;;;20715;6847;119775;-71
2022/11/26 12:06:54;;;;;;;3.25;2.20;;;12.90;47.70;;;;;;20530;6847;308569;-73
2022/11/26 12:09:27;;;;;;;5.33;2.40;;;12.90;45.80;;;;;;20739;6847;117650;-72
2022/11/26 12:11:55;;;;;;;5.70;2.30;;;12.80;46.30;;;;;;20500;6847;460843;-73
2022/11/26 12:14:21;;;;;;;3.53;2.17;;;12.90;45.80;;;;;;20711;6847;117617;-73
2022/11/26 12:16:47;;;;;;;4.40;2.50;;;12.90;45.90;;;;;;20519;6847;307733;-74
2022/11/26 12:19:25;;;;;;;4.40;2.00;;;13.00;45.10;;;;;;20524;6847;327633;-76
2022/11/26 12:21:51;;;;;;;4.20;2.07;;;13.30;44.60;;;;;;20486;6847;306744;-76
2022/11/26 12:24:33;;;;;;;4.18;2.03;;;13.60;42.80;;;;;;20509;6847;311000;-75
2022/11/26 12:27:05;;;;;;;3.47;1.60;;;13.70;42.50;;;;;;19606;7206;119978;-73
2022/11/26 12:29:37;;;;;;;3.47;1.83;;;13.50;43.10;;;;;;20168;6868;119645;-73
2022/11/26 12:32:19;;;;;;;3.03;1.60;;;13.20;43.80;;;;;;20711;6853;119687;-72
2022/11/26 12:34:45;;;;;;;4.73;2.00;;;12.90;45.00;;;;;;19421;7205;325497;-74
2022/11/26 12:37:11;;;;;;;4.57;2.03;;;13.00;44.20;;;;;;20391;6845;308517;-73
2022/11/26 12:39:39;;;;;;;2.57;1.60;;;13.30;43.20;;;;;;20705;6845;117590;-73
2022/11/26 12:42:14;;;;;;;3.70;1.83;;;13.20;43.20;;;;;;20525;6845;339604;-76
2022/11/26 12:44:40;;;;;;;3.47;1.80;;;13.30;41.10;;;;;;20535;6845;279005;-73
2022/11/26 12:47:12;;;;;;;3.10;1.83;;;13.50;40.00;;;;;;20754;6845;117701;-73
2022/11/26 12:49:41;;;;;;;4.03;1.90;;;13.10;41.80;;;;;;20717;6845;118409;-75
2022/11/26 12:52:23;;;;;;;4.57;2.30;;;13.10;41.70;;;;;;20520;6845;310078;-75